Whale Point, California Weather observations

Data are for observation ending at time listed.
 Day   Time    Ave.   Ave.  Ave.  Vector   Max.   Stn.    Total    Solar   Ave.  
  of    of     Air    Rel.  Wind   Wind    Wind   Baro.  Precip.   Rad.    Soil  
Year   Day     Temp.  Hum.  Speed  Dir.    Gust   Pres.                    Temp. 
2015   (PST)    F      %     mph   deg.    mph     mb.     in.     W/m2     F   
------------------------------------------------------------------------------
  85   10:40   72.6    33    3.8   196      7.9   999.0    0.00     856    64.6
  85   10:50   72.8    33    2.3   225      4.6   999.0    0.00     873    64.7
  85   11:00   73.0    34    2.4   219      5.3   999.0    0.00     887    64.7
  85   11:10   73.3    34    2.7   210      5.2   999.0    0.00     899    64.7
  85   11:20   73.7    33    2.4   214      5.4   999.0    0.00     910    64.7
  85   11:30   74.7    30    2.4   204      5.2   999.0    0.00     919    64.7
  85   11:40   74.4    32    2.9   229      9.0   999.0    0.00     927    64.8
  85   11:50   75.0    32    3.0   205      5.5   999.0    0.00     932    64.8
  85   12:00   75.1    34    3.4   214      6.0   999.0    0.00     935    64.9
  85   12:10   73.6    33    3.8   227      9.8   998.6    0.00     938    65.0
  85   12:20   74.0    34    3.7   232     10.2   998.6    0.00     937    65.0
  85   12:30   72.9    34    4.1   223      7.7   998.6    0.00     936    65.1
  85   12:40   72.8    35    3.1   205      6.4   998.6    0.00     932    65.2
  85   12:50   74.5    34    3.4   214      5.8   998.6    0.00     926    65.3
  85   13:00   73.0    35    3.9   213      7.5   998.6    0.00     919    65.4
  85   13:10   74.4    31    5.2   231     10.4   998.3    0.00     910    65.6
  85   13:20   75.4    29    5.6   248     10.0   998.3    0.00     900    65.7
  85   13:30   75.8    29    3.8   229      8.4   998.0    0.00     887    65.9
  85   13:40   76.3    28    3.7   201      7.0   998.0    0.00     871    66.1
  85   13:50   76.8    29    3.1   188      5.6   998.0    0.00     855    66.2
  85   14:00   77.4    29    3.2   205      7.2   998.0    0.00     837    66.4
  85   14:10   76.9    31    3.9   212      6.8   997.6    0.00     818    66.6
  85   14:20   75.2    36    3.7   198      6.2   997.6    0.00     796    66.8
  85   14:30   75.1    38    3.2   193      5.8   997.6    0.00     774    67.0
  85   14:40   73.4    41    3.6   190      5.8   997.6    0.00     749    67.2
  85   14:50   75.2    37    2.9   209      5.2   997.6    0.00     723    67.4
  85   15:00   73.8    35    3.2   214      6.1   997.6    0.00     696    67.6
  85   15:10   74.2    32    3.5   215      6.0   997.3    0.00     667    67.8
  85   15:20   74.4    34    2.9   220      5.0   997.3    0.00     637    68.0
  85   15:30   77.1    34    3.8   218      6.7   997.3    0.00     606    68.2
  85   15:40   77.1    34    3.9   211      6.5   997.3    0.00     573    68.4
  85   15:50   74.4    37    3.8   199      5.6   997.3    0.00     539    68.6
  85   16:00   72.7    37    3.0   227      5.6   997.3    0.00     504    68.8
  85   16:10   74.3    35    3.3   210      5.4   997.3    0.00     468    69.0
  85   16:20   74.0    40    2.8   204      4.5   997.3    0.00     432    69.2
  85   16:30   71.9    39    2.9   207      6.2   997.3    0.00     394    69.4
  85   16:40   70.4    47    2.2   190      4.0   997.3    0.00     356    69.6
  85   16:50   68.8    50    2.3   175      5.0   997.3    0.00     318    69.7
  85   17:00   68.0    50    2.5   178      4.5   997.3    0.00     279    69.9
  85   17:10   68.6    41    2.4   228      7.4   997.3    0.00     241    70.1
  85   17:20   67.9    44    2.4   167      5.1   997.3    0.00     204    70.2
  85   17:30   68.7    42    1.5   183      3.5   997.3    0.00     168    70.4
  85   17:40   70.7    41    0.6   300      1.9   997.0    0.00     134    70.5
  85   17:50   69.8    47    0.9   207      2.0   997.0    0.00     101    70.6
  85   18:00   69.1    40    0.9   247      2.9   997.0    0.00      71    70.8
  85   18:10   68.4    42    0.7   321      3.4   997.0    0.00      43    70.9
  85   18:20   66.9    46    1.0   141      2.2   997.0    0.00      18    71.0
  85   18:30   65.6    48    0.9    19      1.8   997.0    0.00       4    71.1
  85   18:40   66.5    42    0.9    42      2.9   997.0    0.00       1    71.2
  85   18:50   65.3    47    1.5    38      2.7   997.0    0.00       0    71.2
  85   19:00   67.1    43    0.6   150      1.8   997.0    0.00       0    71.3
  85   19:10   66.9    43    0.5    66      1.5   997.0    0.00       0    71.3
  85   19:20   66.9    42    2.8    22      5.0   997.3    0.00       0    71.3
  85   19:30   67.3    39    5.1    23      7.2   997.3    0.00       0    71.3
  85   19:40   66.7    40    4.0    24      6.0   997.3    0.00       0    71.3
  85   19:50   64.9    42    2.3    10      4.2   997.3    0.00       0    71.3
  85   20:00   67.1    34    3.9    23      6.5   997.6    0.00       0    71.3
  85   20:10   68.8    29    6.4    22      7.6   997.6    0.00       0    71.3
  85   20:20   67.3    30    5.8    29      8.1   997.6    0.00       0    71.3
  85   20:30   68.9    26    7.5    28     10.0   997.6    0.00       0    71.2
  85   20:40   70.5    23    7.9    31     10.2   997.6    0.00       0    71.2
  85   20:50   70.0    24    5.5    33      7.6   997.6    0.00       0    71.1
  85   21:00   70.1    23    6.2    34      8.7   997.6    0.00       0    71.1
  85   21:10   71.0    22    7.4    35     10.1   997.6    0.00       0    71.0
  85   21:20   70.5    22    7.2    31      9.4   997.6    0.00       0    71.0
  85   21:30   69.7    23    6.4    24      8.5   998.0    0.00       0    70.9
  85   21:40   67.9    25    5.6    30      7.7   998.0    0.00       0    70.8
  85   21:50   69.4    22    6.3    36      7.7   998.0    0.00       0    70.8
  85   22:00   69.7    22    5.8    30      8.0   998.0    0.00       0    70.7
  85   22:10   69.4    23    5.6    27      7.8   998.0    0.00       0    70.6
  85   22:20   68.1    24    5.0    28      7.7   998.0    0.00       0    70.5
  85   22:30   68.8    23    4.8    36      7.2   998.0    0.00       0    70.5
  85   22:40   68.8    23    4.9    33      7.0   998.0    0.00       0    70.4
  85   22:50   67.6    26    1.0    58      4.0   998.3    0.00       0    70.3
  85   23:00   67.9    24    4.0    40      5.6   998.3    0.00       0    70.2
  85   23:10   69.4    23    3.1    48      6.2   998.3    0.00       0    70.1
  85   23:20   70.2    22    5.4    61      8.2   998.3    0.00       0    70.1
  85   23:30   70.3    22    5.2    56      8.0   998.3    0.00       0    70.0
  85   23:40   70.6    21    6.0    58      8.0   998.0    0.00       0    69.9
  85   23:50   71.0    21    5.2    56      7.2   998.0    0.00       0    69.8
  86    0:00   70.9    21    4.6    56      7.0   998.0    0.00       0    69.7
  86    0:10   70.7    21    5.4    58      8.2   998.0    0.00       0    69.6
  86    0:20   70.7    21    6.2    60      9.1   998.0    0.00       0    69.5
  86    0:30   71.0    21    6.4    61      9.1   998.0    0.00       0    69.5
  86    0:40   71.2    21    6.7    56      9.8   998.0    0.00       0    69.4
  86    0:50   71.3    21    6.6    56     11.0   998.0    0.00       0    69.3
  86    1:00   71.5    21    6.7    60     10.2   998.0    0.00       0    69.3
  86    1:10   71.4    21    6.8    61      9.1   998.0    0.00       0    69.2
  86    1:20   71.3    21    7.8    56     10.9   998.0    0.00       0    69.1
  86    1:30   71.5    21    7.9    58     11.0   998.0    0.00       0    69.0
  86    1:40   70.6    24    3.3    38      8.3   998.0    0.00       0    69.0
  86    1:50   65.8    31    3.6    37      7.0   997.6    0.00       0    68.9
  86    2:00   69.8    24    5.4    54      8.4   997.6    0.00       0    68.8
  86    2:10   71.2    22    5.6    48      9.8   997.6    0.00       0    68.7
  86    2:20   71.5    22    4.3    45      8.6   997.6    0.00       0    68.6
  86    2:30   71.6    22    4.3    51      8.0   997.3    0.00       0    68.6
  86    2:40   71.3    23    5.9    52      9.3   997.3    0.00       0    68.5
  86    2:50   71.5    22    6.3    54     10.1   997.3    0.00       0    68.5
  86    3:00   71.2    23    5.7    39      8.6   997.3    0.00       0    68.4
  86    3:10   71.3    23    6.5    48     10.5   997.3    0.00       0    68.3
  86    3:20   71.4    22    6.3    48     10.1   997.3    0.00       0    68.3
  86    3:30   71.6    22    6.4    49      9.3   997.3    0.00       0    68.2
  86    3:40   71.4    22    6.1    54      9.3   997.3    0.00       0    68.1
  86    3:50   69.8    28    3.5    35      7.5   997.3    0.00       0    68.1
  86    4:00   63.1    40    2.9    40      7.2   997.3    0.00       0    68.0
  86    4:10   67.2    28    5.8    34      8.8   997.3    0.00       0    68.0
  86    4:20   70.5    23    5.9    40      8.4   997.3    0.00       0    67.9
  86    4:30   70.8    23    5.5    46      8.7   997.3    0.00       0    67.8
  86    4:40   70.7    23    5.0    39      7.7   997.3    0.00       0    67.7
  86    4:50   70.0    24    3.5    29      7.8   997.3    0.00       0    67.7
  86    5:00   66.4    34    1.7   201      3.6   997.3    0.00       0    67.7
  86    5:10   61.5    41    1.9    41      4.5   997.3    0.00       0    67.6
  86    5:20   59.2    49    1.3    62      3.2   997.3    0.00       0    67.6
  86    5:30   57.0    56    1.9   113      3.1   997.3    0.00       0    67.5
  86    5:40   54.9    68    2.4   188      5.3   997.3    0.00       0    67.4
  86    5:50   49.9    85    3.0   187      4.7   997.3    0.00       1    67.4
  86    6:00   48.0    90    1.6   134      4.2   997.3    0.00       3    67.3
  86    6:10   48.5    91    1.4   138      3.2   997.3    0.00       7    67.2
  86    6:20   49.2    90    0.2   169      1.5   997.6    0.00      11    67.2
  86    6:30   49.4    89    1.5   163      3.4   997.6    0.00      15    67.1
  86    6:40   50.1    89    2.2   171      3.6   998.0    0.00      18    67.0
  86    6:50   50.6    88    0.6   354      2.0   998.0    0.00      21    66.9
  86    7:00   49.4    87    0.3   360      1.2   998.0    0.00      24    66.8
  86    7:10   49.4    88    0.5   151      1.4   998.0    0.00      26    66.8
  86    7:20   49.3    87    0.4    81      1.6   998.0    0.00      28    66.7
  86    7:30   51.3    84    0.7    59      2.8   998.0    0.00      30    66.6
  86    7:40   57.4    59    1.2   158      3.9   998.3    0.00      32    66.5
  86    7:50   57.5    60    1.3    37      2.4   998.3    0.00     174    66.5
  86    8:00   57.2    65    0.5    24      1.2   998.3    0.00     407    66.4
  86    8:10   58.7    59    1.9    28      2.7   998.6    0.00     446    66.3
  86    8:20   64.6    43    0.2    19      1.8   998.3    0.00     485    66.2
  86    8:30   68.8    38    0.5   181      1.2   998.6    0.00     520    66.1
  86    8:40   70.0    38    1.0   172      2.1   998.6    0.00     554    66.0
  86    8:50   69.1    41    0.3   218      1.2   998.6    0.00     588    66.0
  86    9:00   61.2    63    2.4   163      4.2   999.0    0.00     620    66.0
  86    9:10   62.7    56    1.3   141      1.9   999.0    0.00     651    65.9
  86    9:20   68.9    46    0.6   172      2.0   999.0    0.00     683    65.9
  86    9:30   59.6    68    1.8   183      3.4   999.0    0.00     711    65.8
  86    9:40   59.2    70    1.8   244      3.9   999.0    0.00     739    65.8
  86    9:50   60.3    60    3.0   204      4.5   999.0    0.00     764    65.8
  86   10:00   61.5    61    3.0   205      5.6   999.0    0.00     789    65.7
  86   10:10   58.3    72    2.5   182      4.9   999.0    0.00     811    65.7
  86   10:20   60.2    68    2.1   165      3.9   999.0    0.00     831    65.7
  86   10:30   57.4    75    3.4   179      5.3   999.0    0.00     852    65.7

Return to Whale Point graphs page.


Western Regional Climate Center,wrcc@dri.edu